sensor_id;sensor_type;location;lat;lon;timestamp;temperature;humidity
73777;DHT22;62088;50.240;2.696;2023-04-01T00:02:05;10.00;85.90
73777;DHT22;62088;50.240;2.696;2023-04-01T00:04:32;10.00;85.80
73777;DHT22;62088;50.240;2.696;2023-04-01T00:07:00;10.00;85.90
73777;DHT22;62088;50.240;2.696;2023-04-01T00:09:28;10.00;85.90
73777;DHT22;62088;50.240;2.696;2023-04-01T00:11:55;10.00;85.90
73777;DHT22;62088;50.240;2.696;2023-04-01T00:14:22;10.00;85.90
73777;DHT22;62088;50.240;2.696;2023-04-01T00:16:49;10.00;85.90
73777;DHT22;62088;50.240;2.696;2023-04-01T00:19:16;10.00;85.90
73777;DHT22;62088;50.240;2.696;2023-04-01T00:21:44;10.00;85.90
73777;DHT22;62088;50.240;2.696;2023-04-01T00:24:10;10.00;85.90
73777;DHT22;62088;50.240;2.696;2023-04-01T00:26:38;10.00;86.00
73777;DHT22;62088;50.240;2.696;2023-04-01T00:29:05;10.00;86.00
73777;DHT22;62088;50.240;2.696;2023-04-01T00:31:32;10.00;86.00
73777;DHT22;62088;50.240;2.696;2023-04-01T00:33:59;10.00;86.00
73777;DHT22;62088;50.240;2.696;2023-04-01T00:36:27;10.00;86.00
73777;DHT22;62088;50.240;2.696;2023-04-01T00:38:54;10.00;86.00
73777;DHT22;62088;50.240;2.696;2023-04-01T00:41:21;10.00;86.10
73777;DHT22;62088;50.240;2.696;2023-04-01T00:43:50;10.00;86.10
73777;DHT22;62088;50.240;2.696;2023-04-01T00:46:18;10.00;86.10
73777;DHT22;62088;50.240;2.696;2023-04-01T00:48:49;10.00;86.10
73777;DHT22;62088;50.240;2.696;2023-04-01T00:51:36;10.00;86.20
73777;DHT22;62088;50.240;2.696;2023-04-01T00:54:05;10.00;86.20
73777;DHT22;62088;50.240;2.696;2023-04-01T00:56:49;10.00;86.20
73777;DHT22;62088;50.240;2.696;2023-04-01T00:59:23;10.00;86.30
73777;DHT22;62088;50.240;2.696;2023-04-01T01:01:51;10.00;86.30
73777;DHT22;62088;50.240;2.696;2023-04-01T01:04:37;10.00;86.30
73777;DHT22;62088;50.240;2.696;2023-04-01T01:07:42;10.00;86.30
73777;DHT22;62088;50.240;2.696;2023-04-01T01:10:24;10.00;86.30
73777;DHT22;62088;50.240;2.696;2023-04-01T01:13:10;10.00;86.40
73777;DHT22;62088;50.240;2.696;2023-04-01T01:15:51;10.10;86.40
73777;DHT22;62088;50.240;2.696;2023-04-01T01:18:44;10.00;86.40
73777;DHT22;62088;50.240;2.696;2023-04-01T01:26:46;10.00;86.50
73777;DHT22;62088;50.240;2.696;2023-04-01T01:37:13;10.00;86.50
73777;DHT22;62088;50.240;2.696;2023-04-01T01:39:43;10.00;86.60
73777;DHT22;62088;50.240;2.696;2023-04-01T01:42:15;10.10;86.60
73777;DHT22;62088;50.240;2.696;2023-04-01T01:44:44;10.10;86.60
73777;DHT22;62088;50.240;2.696;2023-04-01T01:47:13;10.10;86.60
73777;DHT22;62088;50.240;2.696;2023-04-01T01:49:42;10.10;86.60
73777;DHT22;62088;50.240;2.696;2023-04-01T01:52:11;10.10;86.70
73777;DHT22;62088;50.240;2.696;2023-04-01T01:54:51;10.10;86.70
73777;DHT22;62088;50.240;2.696;2023-04-01T01:57:24;10.10;86.70
73777;DHT22;62088;50.240;2.696;2023-04-01T02:00:04;10.10;86.70
73777;DHT22;62088;50.240;2.696;2023-04-01T02:02:43;10.10;86.70
73777;DHT22;62088;50.240;2.696;2023-04-01T02:05:16;10.10;86.70
73777;DHT22;62088;50.240;2.696;2023-04-01T02:07:48;10.10;86.70
73777;DHT22;62088;50.240;2.696;2023-04-01T02:10:17;10.20;86.70
73777;DHT22;62088;50.240;2.696;2023-04-01T02:12:46;10.10;86.80
73777;DHT22;62088;50.240;2.696;2023-04-01T02:15:15;10.10;86.80
73777;DHT22;62088;50.240;2.696;2023-04-01T02:17:44;10.10;86.80
73777;DHT22;62088;50.240;2.696;2023-04-01T02:20:19;10.10;86.80
73777;DHT22;62088;50.240;2.696;2023-04-01T02:22:50;10.10;86.80
73777;DHT22;62088;50.240;2.696;2023-04-01T02:25:22;10.10;86.80
73777;DHT22;62088;50.240;2.696;2023-04-01T02:27:51;10.10;86.80
73777;DHT22;62088;50.240;2.696;2023-04-01T02:30:19;10.20;86.80
73777;DHT22;62088;50.240;2.696;2023-04-01T02:32:48;10.20;86.80
73777;DHT22;62088;50.240;2.696;2023-04-01T02:35:16;10.20;86.80
73777;DHT22;62088;50.240;2.696;2023-04-01T02:37:45;10.20;86.80
73777;DHT22;62088;50.240;2.696;2023-04-01T02:40:16;10.10;86.70
73777;DHT22;62088;50.240;2.696;2023-04-01T02:42:44;10.20;86.70
73777;DHT22;62088;50.240;2.696;2023-04-01T02:45:12;10.20;86.70
73777;DHT22;62088;50.240;2.696;2023-04-01T02:47:39;10.20;86.70
73777;DHT22;62088;50.240;2.696;2023-04-01T02:50:08;10.10;86.70
73777;DHT22;62088;50.240;2.696;2023-04-01T02:52:35;10.10;86.70
73777;DHT22;62088;50.240;2.696;2023-04-01T02:55:03;10.10;86.70
73777;DHT22;62088;50.240;2.696;2023-04-01T02:57:31;10.20;86.70
73777;DHT22;62088;50.240;2.696;2023-04-01T02:59:58;10.20;86.70
73777;DHT22;62088;50.240;2.696;2023-04-01T03:02:25;10.20;86.70
73777;DHT22;62088;50.240;2.696;2023-04-01T03:04:52;10.20;86.70
73777;DHT22;62088;50.240;2.696;2023-04-01T03:07:19;10.20;86.70
73777;DHT22;62088;50.240;2.696;2023-04-01T03:09:48;10.20;86.70
73777;DHT22;62088;50.240;2.696;2023-04-01T03:12:15;10.20;86.70
73777;DHT22;62088;50.240;2.696;2023-04-01T03:14:48;10.20;86.70
73777;DHT22;62088;50.240;2.696;2023-04-01T03:17:16;10.20;86.60
73777;DHT22;62088;50.240;2.696;2023-04-01T03:19:43;10.20;86.70
73777;DHT22;62088;50.240;2.696;2023-04-01T03:22:11;10.20;86.70
73777;DHT22;62088;50.240;2.696;2023-04-01T03:24:38;10.20;86.70
73777;DHT22;62088;50.240;2.696;2023-04-01T03:27:05;10.20;86.70
73777;DHT22;62088;50.240;2.696;2023-04-01T03:29:33;10.20;86.70
73777;DHT22;62088;50.240;2.696;2023-04-01T03:32:00;10.20;86.70
73777;DHT22;62088;50.240;2.696;2023-04-01T03:34:27;10.20;86.70
73777;DHT22;62088;50.240;2.696;2023-04-01T03:36:54;10.20;86.70
73777;DHT22;62088;50.240;2.696;2023-04-01T03:39:21;10.20;86.70
73777;DHT22;62088;50.240;2.696;2023-04-01T03:41:49;10.20;86.70
73777;DHT22;62088;50.240;2.696;2023-04-01T03:44:16;10.20;86.70
73777;DHT22;62088;50.240;2.696;2023-04-01T03:46:47;10.20;86.70
73777;DHT22;62088;50.240;2.696;2023-04-01T03:49:14;10.20;86.70
73777;DHT22;62088;50.240;2.696;2023-04-01T03:51:43;10.20;86.70
73777;DHT22;62088;50.240;2.696;2023-04-01T03:54:11;10.20;86.60
73777;DHT22;62088;50.240;2.696;2023-04-01T03:56:38;10.20;86.60
73777;DHT22;62088;50.240;2.696;2023-04-01T03:59:07;10.20;86.60
73777;DHT22;62088;50.240;2.696;2023-04-01T04:01:35;10.20;86.60
73777;DHT22;62088;50.240;2.696;2023-04-01T04:04:03;10.20;86.70
73777;DHT22;62088;50.240;2.696;2023-04-01T04:06:30;10.20;86.70
73777;DHT22;62088;50.240;2.696;2023-04-01T04:08:57;10.20;86.70
73777;DHT22;62088;50.240;2.696;2023-04-01T04:11:25;10.20;86.70
73777;DHT22;62088;50.240;2.696;2023-04-01T04:13:52;10.20;86.70
73777;DHT22;62088;50.240;2.696;2023-04-01T04:16:22;10.20;86.70
73777;DHT22;62088;50.240;2.696;2023-04-01T04:18:55;10.20;86.70
73777;DHT22;62088;50.240;2.696;2023-04-01T04:21:22;10.20;86.70
73777;DHT22;62088;50.240;2.696;2023-04-01T04:23:50;10.20;86.70
73777;DHT22;62088;50.240;2.696;2023-04-01T04:26:19;10.20;86.70
73777;DHT22;62088;50.240;2.696;2023-04-01T04:28:54;10.20;86.70
73777;DHT22;62088;50.240;2.696;2023-04-01T04:31:23;10.20;86.70
73777;DHT22;62088;50.240;2.696;2023-04-01T04:33:52;10.20;86.70
73777;DHT22;62088;50.240;2.696;2023-04-01T04:36:21;10.20;86.70
73777;DHT22;62088;50.240;2.696;2023-04-01T04:38:49;10.20;86.70
73777;DHT22;62088;50.240;2.696;2023-04-01T04:41:18;10.20;86.70
73777;DHT22;62088;50.240;2.696;2023-04-01T04:43:53;10.20;86.70
73777;DHT22;62088;50.240;2.696;2023-04-01T04:46:22;10.20;86.80
73777;DHT22;62088;50.240;2.696;2023-04-01T04:48:54;10.20;86.70
73777;DHT22;62088;50.240;2.696;2023-04-01T04:51:22;10.20;86.70
73777;DHT22;62088;50.240;2.696;2023-04-01T04:53:49;10.20;86.80
73777;DHT22;62088;50.240;2.696;2023-04-01T04:56:22;10.20;86.80
73777;DHT22;62088;50.240;2.696;2023-04-01T04:58:58;10.20;86.80
73777;DHT22;62088;50.240;2.696;2023-04-01T05:01:39;10.10;86.80
73777;DHT22;62088;50.240;2.696;2023-04-01T05:04:06;10.20;86.80
73777;DHT22;62088;50.240;2.696;2023-04-01T05:06:33;10.20;86.80
73777;DHT22;62088;50.240;2.696;2023-04-01T05:09:00;10.20;86.80
73777;DHT22;62088;50.240;2.696;2023-04-01T05:11:27;10.20;86.80
73777;DHT22;62088;50.240;2.696;2023-04-01T05:13:55;10.20;86.80
73777;DHT22;62088;50.240;2.696;2023-04-01T05:16:22;10.20;86.80
73777;DHT22;62088;50.240;2.696;2023-04-01T05:18:49;10.20;86.80
73777;DHT22;62088;50.240;2.696;2023-04-01T05:21:16;10.20;86.80
73777;DHT22;62088;50.240;2.696;2023-04-01T05:23:44;10.20;86.80
73777;DHT22;62088;50.240;2.696;2023-04-01T05:26:13;10.20;86.80
73777;DHT22;62088;50.240;2.696;2023-04-01T05:28:40;10.20;86.80
73777;DHT22;62088;50.240;2.696;2023-04-01T05:31:08;10.10;86.80
73777;DHT22;62088;50.240;2.696;2023-04-01T05:33:40;10.10;86.80
73777;DHT22;62088;50.240;2.696;2023-04-01T05:36:14;10.20;86.80
73777;DHT22;62088;50.240;2.696;2023-04-01T05:38:41;10.10;86.80
73777;DHT22;62088;50.240;2.696;2023-04-01T05:41:14;10.20;86.80
73777;DHT22;62088;50.240;2.696;2023-04-01T05:43:44;10.10;86.80
73777;DHT22;62088;50.240;2.696;2023-04-01T05:46:47;10.20;86.80
73777;DHT22;62088;50.240;2.696;2023-04-01T05:49:19;10.10;86.80
73777;DHT22;62088;50.240;2.696;2023-04-01T05:51:47;10.20;86.80
73777;DHT22;62088;50.240;2.696;2023-04-01T05:54:14;10.20;86.80
73777;DHT22;62088;50.240;2.696;2023-04-01T05:56:43;10.10;86.80
73777;DHT22;62088;50.240;2.696;2023-04-01T05:59:12;10.10;86.80
73777;DHT22;62088;50.240;2.696;2023-04-01T06:01:40;10.10;86.80
73777;DHT22;62088;50.240;2.696;2023-04-01T06:04:14;10.10;86.80
73777;DHT22;62088;50.240;2.696;2023-04-01T06:06:42;10.20;86.80
73777;DHT22;62088;50.240;2.696;2023-04-01T06:09:32;10.20;86.80
73777;DHT22;62088;50.240;2.696;2023-04-01T06:17:26;10.20;86.80
73777;DHT22;62088;50.240;2.696;2023-04-01T06:20:12;10.20;86.80
73777;DHT22;62088;50.240;2.696;2023-04-01T06:34:54;10.20;86.90
73777;DHT22;62088;50.240;2.696;2023-04-01T06:45:59;10.20;87.00
73777;DHT22;62088;50.240;2.696;2023-04-01T06:52:29;10.20;87.00
73777;DHT22;62088;50.240;2.696;2023-04-01T06:55:59;10.30;87.10
73777;DHT22;62088;50.240;2.696;2023-04-01T06:58:26;10.30;87.00
73777;DHT22;62088;50.240;2.696;2023-04-01T07:00:58;10.30;87.10
73777;DHT22;62088;50.240;2.696;2023-04-01T07:03:39;10.20;87.00
73777;DHT22;62088;50.240;2.696;2023-04-01T07:06:18;10.30;87.00
73777;DHT22;62088;50.240;2.696;2023-04-01T07:08:55;10.30;87.00
73777;DHT22;62088;50.240;2.696;2023-04-01T07:11:28;10.30;87.00
73777;DHT22;62088;50.240;2.696;2023-04-01T07:14:33;10.30;87.00
73777;DHT22;62088;50.240;2.696;2023-04-01T07:17:08;10.30;87.10
73777;DHT22;62088;50.240;2.696;2023-04-01T07:19:52;10.30;87.10
73777;DHT22;62088;50.240;2.696;2023-04-01T07:25:29;10.40;87.10
73777;DHT22;62088;50.240;2.696;2023-04-01T07:28:17;10.30;87.10
73777;DHT22;62088;50.240;2.696;2023-04-01T07:34:05;10.40;87.10
73777;DHT22;62088;50.240;2.696;2023-04-01T07:42:44;10.40;87.10
73777;DHT22;62088;50.240;2.696;2023-04-01T07:45:24;10.40;87.10
73777;DHT22;62088;50.240;2.696;2023-04-01T07:53:51;10.40;87.10
73777;DHT22;62088;50.240;2.696;2023-04-01T08:05:32;10.40;87.10
73777;DHT22;62088;50.240;2.696;2023-04-01T08:17:32;10.50;87.00
73777;DHT22;62088;50.240;2.696;2023-04-01T08:20:18;10.50;87.00
73777;DHT22;62088;50.240;2.696;2023-04-01T08:22:59;10.50;87.00
73777;DHT22;62088;50.240;2.696;2023-04-01T08:25:34;10.50;87.00
73777;DHT22;62088;50.240;2.696;2023-04-01T08:33:15;10.60;87.20
73777;DHT22;62088;50.240;2.696;2023-04-01T08:38:31;10.70;87.20
73777;DHT22;62088;50.240;2.696;2023-04-01T08:47:16;10.70;87.10
73777;DHT22;62088;50.240;2.696;2023-04-01T08:50:00;10.70;87.10
73777;DHT22;62088;50.240;2.696;2023-04-01T09:01:36;10.80;87.00
73777;DHT22;62088;50.240;2.696;2023-04-01T09:04:30;10.80;87.00
73777;DHT22;62088;50.240;2.696;2023-04-01T09:07:08;10.80;86.90
73777;DHT22;62088;50.240;2.696;2023-04-01T09:12:59;10.90;86.80
73777;DHT22;62088;50.240;2.696;2023-04-01T09:16:19;10.90;86.80
73777;DHT22;62088;50.240;2.696;2023-04-01T09:18:59;10.90;86.70
73777;DHT22;62088;50.240;2.696;2023-04-01T09:25:01;10.90;86.60
73777;DHT22;62088;50.240;2.696;2023-04-01T09:27:43;10.90;86.60
73777;DHT22;62088;50.240;2.696;2023-04-01T09:38:46;10.90;86.40
73777;DHT22;62088;50.240;2.696;2023-04-01T09:41:34;10.90;86.30
73777;DHT22;62088;50.240;2.696;2023-04-01T09:44:30;10.90;86.30
73777;DHT22;62088;50.240;2.696;2023-04-01T09:52:55;11.10;86.20
73777;DHT22;62088;50.240;2.696;2023-04-01T09:55:52;11.10;86.10
73777;DHT22;62088;50.240;2.696;2023-04-01T10:26:38;11.20;85.40
73777;DHT22;62088;50.240;2.696;2023-04-01T10:35:35;11.30;85.10
73777;DHT22;62088;50.240;2.696;2023-04-01T10:56:23;11.60;84.20
73777;DHT22;62088;50.240;2.696;2023-04-01T11:22:24;11.90;83.40
73777;DHT22;62088;50.240;2.696;2023-04-01T11:28:35;12.20;83.60
73777;DHT22;62088;50.240;2.696;2023-04-01T11:31:39;12.30;83.40
73777;DHT22;62088;50.240;2.696;2023-04-01T11:34:42;12.40;83.00
73777;DHT22;62088;50.240;2.696;2023-04-01T11:40:54;12.40;81.80
73777;DHT22;62088;50.240;2.696;2023-04-01T12:06:35;12.10;79.60
73777;DHT22;62088;50.240;2.696;2023-04-01T12:14:30;12.00;80.10
73777;DHT22;62088;50.240;2.696;2023-04-01T12:19:53;11.90;80.20
73777;DHT22;62088;50.240;2.696;2023-04-01T12:22:54;11.90;80.30
73777;DHT22;62088;50.240;2.696;2023-04-01T12:25:28;11.90;80.40
73777;DHT22;62088;50.240;2.696;2023-04-01T12:28:23;11.80;80.50
73777;DHT22;62088;50.240;2.696;2023-04-01T12:56:09;12.00;82.20
73777;DHT22;62088;50.240;2.696;2023-04-01T12:58:51;12.10;81.90
73777;DHT22;62088;50.240;2.696;2023-04-01T13:13:31;12.20;81.40
73777;DHT22;62088;50.240;2.696;2023-04-01T13:16:08;12.10;81.30
73777;DHT22;62088;50.240;2.696;2023-04-01T13:18:54;12.10;81.40
73777;DHT22;62088;50.240;2.696;2023-04-01T13:26:53;12.00;81.60
73777;DHT22;62088;50.240;2.696;2023-04-01T13:29:27;12.00;81.70
73777;DHT22;62088;50.240;2.696;2023-04-01T13:43:42;12.00;81.90
73777;DHT22;62088;50.240;2.696;2023-04-01T13:52:33;11.90;81.70
73777;DHT22;62088;50.240;2.696;2023-04-01T13:58:11;11.90;81.70
73777;DHT22;62088;50.240;2.696;2023-04-01T14:00:48;11.90;81.60
73777;DHT22;62088;50.240;2.696;2023-04-01T14:11:16;11.80;81.80
73777;DHT22;62088;50.240;2.696;2023-04-01T14:14:05;11.80;82.00
73777;DHT22;62088;50.240;2.696;2023-04-01T14:25:44;11.80;82.30
73777;DHT22;62088;50.240;2.696;2023-04-01T14:28:31;11.90;82.30
73777;DHT22;62088;50.240;2.696;2023-04-01T14:42:06;11.90;82.00
73777;DHT22;62088;50.240;2.696;2023-04-01T14:45:17;11.90;81.90
73777;DHT22;62088;50.240;2.696;2023-04-01T14:50:44;11.90;81.70
73777;DHT22;62088;50.240;2.696;2023-04-01T14:53:31;11.90;81.80
73777;DHT22;62088;50.240;2.696;2023-04-01T14:56:02;11.90;81.70
73777;DHT22;62088;50.240;2.696;2023-04-01T14:58:47;11.90;81.70
73777;DHT22;62088;50.240;2.696;2023-04-01T15:01:32;11.90;81.60
73777;DHT22;62088;50.240;2.696;2023-04-01T15:04:26;11.90;81.50
73777;DHT22;62088;50.240;2.696;2023-04-01T15:12:36;11.70;81.50
73777;DHT22;62088;50.240;2.696;2023-04-01T15:18:15;11.70;81.60
73777;DHT22;62088;50.240;2.696;2023-04-01T15:24:18;11.60;81.60
73777;DHT22;62088;50.240;2.696;2023-04-01T15:32:28;11.50;81.90
73777;DHT22;62088;50.240;2.696;2023-04-01T15:43:18;11.50;82.10
73777;DHT22;62088;50.240;2.696;2023-04-01T15:45:55;11.50;82.00
73777;DHT22;62088;50.240;2.696;2023-04-01T16:05:24;11.30;82.40
73777;DHT22;62088;50.240;2.696;2023-04-01T16:24:30;11.30;82.20
73777;DHT22;62088;50.240;2.696;2023-04-01T16:27:07;11.30;82.10
73777;DHT22;62088;50.240;2.696;2023-04-01T16:29:52;11.30;82.00
73777;DHT22;62088;50.240;2.696;2023-04-01T16:32:31;11.20;81.70
73777;DHT22;62088;50.240;2.696;2023-04-01T16:35:16;11.20;81.60
73777;DHT22;62088;50.240;2.696;2023-04-01T16:37:59;11.10;81.60
73777;DHT22;62088;50.240;2.696;2023-04-01T16:40:53;11.10;81.60
73777;DHT22;62088;50.240;2.696;2023-04-01T16:49:04;11.00;82.00
73777;DHT22;62088;50.240;2.696;2023-04-01T16:51:52;10.90;82.10
73777;DHT22;62088;50.240;2.696;2023-04-01T16:54:28;10.90;82.10
73777;DHT22;62088;50.240;2.696;2023-04-01T17:02:10;10.90;82.00
73777;DHT22;62088;50.240;2.696;2023-04-01T17:04:47;10.90;82.10
73777;DHT22;62088;50.240;2.696;2023-04-01T17:20:58;10.90;82.50
73777;DHT22;62088;50.240;2.696;2023-04-01T17:28:57;10.80;82.40
73777;DHT22;62088;50.240;2.696;2023-04-01T17:42:15;10.70;82.20
73777;DHT22;62088;50.240;2.696;2023-04-01T18:06:34;10.40;82.10
73777;DHT22;62088;50.240;2.696;2023-04-01T18:09:29;10.40;82.10
73777;DHT22;62088;50.240;2.696;2023-04-01T18:20:51;10.20;82.20
73777;DHT22;62088;50.240;2.696;2023-04-01T18:23:28;10.20;82.20
73777;DHT22;62088;50.240;2.696;2023-04-01T18:26:06;10.10;82.20
73777;DHT22;62088;50.240;2.696;2023-04-01T18:28:56;10.10;82.20
73777;DHT22;62088;50.240;2.696;2023-04-01T18:31:40;10.00;82.30
73777;DHT22;62088;50.240;2.696;2023-04-01T18:34:39;10.00;82.30
73777;DHT22;62088;50.240;2.696;2023-04-01T18:37:28;10.00;82.50
73777;DHT22;62088;50.240;2.696;2023-04-01T18:40:20;10.00;82.50
73777;DHT22;62088;50.240;2.696;2023-04-01T18:46:00;9.90;82.60
73777;DHT22;62088;50.240;2.696;2023-04-01T18:48:40;9.90;82.60
73777;DHT22;62088;50.240;2.696;2023-04-01T18:51:21;9.90;82.60
73777;DHT22;62088;50.240;2.696;2023-04-01T18:54:05;9.90;82.70
73777;DHT22;62088;50.240;2.696;2023-04-01T18:56:42;9.90;82.70
73777;DHT22;62088;50.240;2.696;2023-04-01T18:59:26;9.90;82.70
73777;DHT22;62088;50.240;2.696;2023-04-01T19:04:52;9.90;82.80
73777;DHT22;62088;50.240;2.696;2023-04-01T19:24:19;9.70;83.10
73777;DHT22;62088;50.240;2.696;2023-04-01T19:27:10;9.70;83.20
73777;DHT22;62088;50.240;2.696;2023-04-01T19:35:26;9.60;83.20
73777;DHT22;62088;50.240;2.696;2023-04-01T19:38:03;9.60;83.10
73777;DHT22;62088;50.240;2.696;2023-04-01T19:40:51;9.60;83.20
73777;DHT22;62088;50.240;2.696;2023-04-01T19:44:06;9.50;83.20
73777;DHT22;62088;50.240;2.696;2023-04-01T19:46:21;9.50;83.20
73777;DHT22;62088;50.240;2.696;2023-04-01T19:51:55;9.40;83.20
73777;DHT22;62088;50.240;2.696;2023-04-01T19:54:41;9.40;83.10
73777;DHT22;62088;50.240;2.696;2023-04-01T20:00:09;9.40;83.10
73777;DHT22;62088;50.240;2.696;2023-04-01T20:03:05;9.40;83.10
73777;DHT22;62088;50.240;2.696;2023-04-01T20:08:45;9.30;83.10
73777;DHT22;62088;50.240;2.696;2023-04-01T20:14:26;9.30;83.20
73777;DHT22;62088;50.240;2.696;2023-04-01T20:16:58;9.30;83.20
73777;DHT22;62088;50.240;2.696;2023-04-01T20:22:02;9.30;83.20
73777;DHT22;62088;50.240;2.696;2023-04-01T20:24:43;9.30;83.20
73777;DHT22;62088;50.240;2.696;2023-04-01T20:39:11;9.20;83.40
73777;DHT22;62088;50.240;2.696;2023-04-01T20:50:36;9.20;83.60
73777;DHT22;62088;50.240;2.696;2023-04-01T20:53:12;9.20;83.70
73777;DHT22;62088;50.240;2.696;2023-04-01T21:07:34;9.10;83.70
73777;DHT22;62088;50.240;2.696;2023-04-01T21:10:29;9.10;83.70
73777;DHT22;62088;50.240;2.696;2023-04-01T21:21:23;9.00;83.80
73777;DHT22;62088;50.240;2.696;2023-04-01T21:26:41;9.00;83.80
73777;DHT22;62088;50.240;2.696;2023-04-01T21:34:42;9.00;83.90
73777;DHT22;62088;50.240;2.696;2023-04-01T21:43:03;9.00;84.00
73777;DHT22;62088;50.240;2.696;2023-04-01T21:51:34;9.00;84.10
73777;DHT22;62088;50.240;2.696;2023-04-01T21:57:36;8.90;84.10
73777;DHT22;62088;50.240;2.696;2023-04-01T22:00:14;9.00;84.10
73777;DHT22;62088;50.240;2.696;2023-04-01T22:05:58;8.90;84.20
73777;DHT22;62088;50.240;2.696;2023-04-01T22:08:52;8.90;84.20
73777;DHT22;62088;50.240;2.696;2023-04-01T22:11:44;9.00;84.20
73777;DHT22;62088;50.240;2.696;2023-04-01T22:17:14;8.90;84.20
73777;DHT22;62088;50.240;2.696;2023-04-01T22:25:25;8.90;84.30
73777;DHT22;62088;50.240;2.696;2023-04-01T22:28:03;8.90;84.20
73777;DHT22;62088;50.240;2.696;2023-04-01T22:30:59;8.90;84.30
73777;DHT22;62088;50.240;2.696;2023-04-01T22:41:56;8.90;84.30
73777;DHT22;62088;50.240;2.696;2023-04-01T22:45:03;8.90;84.30
73777;DHT22;62088;50.240;2.696;2023-04-01T22:55:33;8.90;84.50
73777;DHT22;62088;50.240;2.696;2023-04-01T22:58:32;8.90;84.50
73777;DHT22;62088;50.240;2.696;2023-04-01T23:01:28;8.90;84.50
73777;DHT22;62088;50.240;2.696;2023-04-01T23:03:59;8.90;84.60
73777;DHT22;62088;50.240;2.696;2023-04-01T23:06:31;8.90;84.60
73777;DHT22;62088;50.240;2.696;2023-04-01T23:09:23;8.90;84.60
73777;DHT22;62088;50.240;2.696;2023-04-01T23:11:55;8.90;84.60
73777;DHT22;62088;50.240;2.696;2023-04-01T23:14:32;8.80;84.60
73777;DHT22;62088;50.240;2.696;2023-04-01T23:24:45;8.80;84.70
73777;DHT22;62088;50.240;2.696;2023-04-01T23:27:38;8.80;84.70
73777;DHT22;62088;50.240;2.696;2023-04-01T23:30:46;8.80;84.70
73777;DHT22;62088;50.240;2.696;2023-04-01T23:36:02;8.80;84.70
73777;DHT22;62088;50.240;2.696;2023-04-01T23:38:39;8.70;84.70
73777;DHT22;62088;50.240;2.696;2023-04-01T23:41:27;8.70;84.80
73777;DHT22;62088;50.240;2.696;2023-04-01T23:44:05;8.70;84.80
73777;DHT22;62088;50.240;2.696;2023-04-01T23:46:35;8.70;84.80
73777;DHT22;62088;50.240;2.696;2023-04-01T23:49:03;8.70;84.80
73777;DHT22;62088;50.240;2.696;2023-04-01T23:51:37;8.70;84.80
73777;DHT22;62088;50.240;2.696;2023-04-01T23:54:19;8.70;84.70
73777;DHT22;62088;50.240;2.696;2023-04-01T23:56:53;8.70;84.70
73777;DHT22;62088;50.240;2.696;2023-04-01T23:59:30;8.70;84.70
